sensor_id;sensor_type;location;lat;lon;timestamp;P1;durP1;ratioP1;P2;durP2;ratioP2
28920;SDS011;16035;53.594;9.952;2022-08-19T00:00:34;8.57;;;6.03;;
28920;SDS011;16035;53.594;9.952;2022-08-19T00:02:36;6.20;;;5.10;;
28920;SDS011;16035;53.594;9.952;2022-08-19T00:04:36;7.20;;;6.23;;
28920;SDS011;16035;53.594;9.952;2022-08-19T00:06:37;10.40;;;5.82;;
28920;SDS011;16035;53.594;9.952;2022-08-19T00:08:40;8.40;;;5.40;;
28920;SDS011;16035;53.594;9.952;2022-08-19T00:10:40;7.90;;;6.30;;
28920;SDS011;16035;53.594;9.952;2022-08-19T00:12:41;13.73;;;8.13;;
28920;SDS011;16035;53.594;9.952;2022-08-19T00:14:42;13.73;;;9.25;;
28920;SDS011;16035;53.594;9.952;2022-08-19T00:16:43;15.30;;;9.97;;
28920;SDS011;16035;53.594;9.952;2022-08-19T00:18:45;17.90;;;12.90;;
28920;SDS011;16035;53.594;9.952;2022-08-19T00:20:46;17.13;;;11.73;;
28920;SDS011;16035;53.594;9.952;2022-08-19T00:22:47;15.53;;;10.80;;
28920;SDS011;16035;53.594;9.952;2022-08-19T00:24:48;19.33;;;11.75;;
28920;SDS011;16035;53.594;9.952;2022-08-19T00:26:48;18.53;;;11.10;;
28920;SDS011;16035;53.594;9.952;2022-08-19T00:28:48;17.03;;;11.87;;
28920;SDS011;16035;53.594;9.952;2022-08-19T00:30:49;18.47;;;12.10;;
28920;SDS011;16035;53.594;9.952;2022-08-19T00:32:51;18.63;;;11.27;;
28920;SDS011;16035;53.594;9.952;2022-08-19T00:34:55;19.83;;;12.13;;
28920;SDS011;16035;53.594;9.952;2022-08-19T00:36:56;21.53;;;12.20;;
28920;SDS011;16035;53.594;9.952;2022-08-19T00:38:57;21.25;;;14.85;;
28920;SDS011;16035;53.594;9.952;2022-08-19T00:40:58;23.10;;;14.98;;
28920;SDS011;16035;53.594;9.952;2022-08-19T00:42:58;20.67;;;13.80;;
28920;SDS011;16035;53.594;9.952;2022-08-19T00:44:59;24.83;;;16.37;;
28920;SDS011;16035;53.594;9.952;2022-08-19T00:46:59;24.67;;;14.13;;
28920;SDS011;16035;53.594;9.952;2022-08-19T00:49:00;23.80;;;14.40;;
28920;SDS011;16035;53.594;9.952;2022-08-19T00:51:06;24.52;;;14.85;;
28920;SDS011;16035;53.594;9.952;2022-08-19T00:53:06;26.60;;;15.50;;
28920;SDS011;16035;53.594;9.952;2022-08-19T00:55:07;20.75;;;14.73;;
28920;SDS011;16035;53.594;9.952;2022-08-19T00:57:12;25.35;;;15.20;;
28920;SDS011;16035;53.594;9.952;2022-08-19T00:59:17;30.38;;;16.67;;
28920;SDS011;16035;53.594;9.952;2022-08-19T01:01:19;31.05;;;17.38;;
28920;SDS011;16035;53.594;9.952;2022-08-19T01:03:19;22.43;;;14.67;;
28920;SDS011;16035;53.594;9.952;2022-08-19T01:05:22;27.67;;;15.75;;
28920;SDS011;16035;53.594;9.952;2022-08-19T01:07:27;25.40;;;13.90;;
28920;SDS011;16035;53.594;9.952;2022-08-19T01:09:28;21.87;;;13.93;;
28920;SDS011;16035;53.594;9.952;2022-08-19T01:11:30;20.58;;;13.25;;
28920;SDS011;16035;53.594;9.952;2022-08-19T01:13:33;20.75;;;12.07;;
28920;SDS011;16035;53.594;9.952;2022-08-19T01:15:38;19.42;;;12.18;;
28920;SDS011;16035;53.594;9.952;2022-08-19T01:17:43;18.33;;;12.80;;
28920;SDS011;16035;53.594;9.952;2022-08-19T01:19:45;22.42;;;12.07;;
28920;SDS011;16035;53.594;9.952;2022-08-19T01:21:49;19.55;;;12.27;;
28920;SDS011;16035;53.594;9.952;2022-08-19T01:23:55;16.58;;;11.20;;
28920;SDS011;16035;53.594;9.952;2022-08-19T01:25:56;20.75;;;12.55;;
28920;SDS011;16035;53.594;9.952;2022-08-19T01:27:57;16.50;;;10.93;;
28920;SDS011;16035;53.594;9.952;2022-08-19T01:29:57;17.83;;;11.13;;
28920;SDS011;16035;53.594;9.952;2022-08-19T01:31:58;17.83;;;10.83;;
28920;SDS011;16035;53.594;9.952;2022-08-19T01:34:00;18.50;;;10.70;;
28920;SDS011;16035;53.594;9.952;2022-08-19T01:36:05;15.77;;;10.98;;
28920;SDS011;16035;53.594;9.952;2022-08-19T01:38:23;17.67;;;11.50;;
28920;SDS011;16035;53.594;9.952;2022-08-19T01:40:26;16.42;;;12.02;;
28920;SDS011;16035;53.594;9.952;2022-08-19T01:42:30;18.35;;;11.68;;
28920;SDS011;16035;53.594;9.952;2022-08-19T01:44:31;26.60;;;14.68;;
28920;SDS011;16035;53.594;9.952;2022-08-19T01:46:32;16.83;;;12.07;;
28920;SDS011;16035;53.594;9.952;2022-08-19T01:48:36;19.30;;;11.57;;
28920;SDS011;16035;53.594;9.952;2022-08-19T01:50:40;59.80;;;36.47;;
28920;SDS011;16035;53.594;9.952;2022-08-19T01:52:42;30.73;;;17.33;;
28920;SDS011;16035;53.594;9.952;2022-08-19T01:54:44;45.40;;;27.27;;
28920;SDS011;16035;53.594;9.952;2022-08-19T01:56:44;22.67;;;14.60;;
28920;SDS011;16035;53.594;9.952;2022-08-19T01:58:47;28.30;;;14.83;;
28920;SDS011;16035;53.594;9.952;2022-08-19T02:00:51;26.90;;;13.82;;
28920;SDS011;16035;53.594;9.952;2022-08-19T02:02:52;25.57;;;13.93;;
28920;SDS011;16035;53.594;9.952;2022-08-19T02:04:52;22.93;;;13.20;;
28920;SDS011;16035;53.594;9.952;2022-08-19T02:06:52;25.20;;;14.23;;
28920;SDS011;16035;53.594;9.952;2022-08-19T02:08:53;25.67;;;13.70;;
28920;SDS011;16035;53.594;9.952;2022-08-19T02:10:53;27.67;;;14.00;;
28920;SDS011;16035;53.594;9.952;2022-08-19T02:12:54;20.70;;;13.00;;
28920;SDS011;16035;53.594;9.952;2022-08-19T02:14:54;20.07;;;11.27;;
28920;SDS011;16035;53.594;9.952;2022-08-19T02:16:54;24.23;;;13.37;;
28920;SDS011;16035;53.594;9.952;2022-08-19T02:18:55;22.40;;;13.63;;
28920;SDS011;16035;53.594;9.952;2022-08-19T02:20:55;25.07;;;13.57;;
28920;SDS011;16035;53.594;9.952;2022-08-19T02:22:55;22.80;;;14.33;;
28920;SDS011;16035;53.594;9.952;2022-08-19T02:24:56;24.63;;;12.70;;
28920;SDS011;16035;53.594;9.952;2022-08-19T02:26:56;25.27;;;12.93;;
28920;SDS011;16035;53.594;9.952;2022-08-19T02:28:58;23.60;;;12.52;;
28920;SDS011;16035;53.594;9.952;2022-08-19T02:31:00;19.13;;;12.68;;
28920;SDS011;16035;53.594;9.952;2022-08-19T02:33:02;21.08;;;13.60;;
28920;SDS011;16035;53.594;9.952;2022-08-19T02:35:03;23.90;;;12.77;;
28920;SDS011;16035;53.594;9.952;2022-08-19T02:37:03;20.17;;;12.35;;
28920;SDS011;16035;53.594;9.952;2022-08-19T02:39:04;20.20;;;11.43;;
28920;SDS011;16035;53.594;9.952;2022-08-19T02:41:05;23.07;;;12.37;;
28920;SDS011;16035;53.594;9.952;2022-08-19T02:43:09;24.00;;;12.80;;
28920;SDS011;16035;53.594;9.952;2022-08-19T02:45:10;25.30;;;12.57;;
28920;SDS011;16035;53.594;9.952;2022-08-19T02:47:10;25.03;;;12.97;;
28920;SDS011;16035;53.594;9.952;2022-08-19T02:49:11;25.23;;;12.60;;
28920;SDS011;16035;53.594;9.952;2022-08-19T02:51:15;26.52;;;14.63;;
28920;SDS011;16035;53.594;9.952;2022-08-19T02:53:17;28.30;;;14.73;;
28920;SDS011;16035;53.594;9.952;2022-08-19T02:55:17;30.17;;;13.73;;
28920;SDS011;16035;53.594;9.952;2022-08-19T02:57:18;30.48;;;14.07;;
28920;SDS011;16035;53.594;9.952;2022-08-19T02:59:19;28.47;;;14.73;;
28920;SDS011;16035;53.594;9.952;2022-08-19T03:03:24;29.63;;;14.32;;
28920;SDS011;16035;53.594;9.952;2022-08-19T03:05:25;32.45;;;16.30;;
28920;SDS011;16035;53.594;9.952;2022-08-19T03:07:25;34.43;;;17.53;;
28920;SDS011;16035;53.594;9.952;2022-08-19T03:09:25;35.33;;;17.77;;
28920;SDS011;16035;53.594;9.952;2022-08-19T03:11:30;33.07;;;16.20;;
28920;SDS011;16035;53.594;9.952;2022-08-19T03:13:31;37.22;;;16.88;;
28920;SDS011;16035;53.594;9.952;2022-08-19T03:15:32;37.73;;;16.97;;
28920;SDS011;16035;53.594;9.952;2022-08-19T03:17:33;34.97;;;15.83;;
28920;SDS011;16035;53.594;9.952;2022-08-19T03:19:34;32.33;;;15.50;;
28920;SDS011;16035;53.594;9.952;2022-08-19T03:21:35;38.67;;;16.27;;
28920;SDS011;16035;53.594;9.952;2022-08-19T03:23:35;33.77;;;14.77;;
28920;SDS011;16035;53.594;9.952;2022-08-19T03:25:37;32.40;;;15.33;;
28920;SDS011;16035;53.594;9.952;2022-08-19T03:27:39;37.15;;;16.38;;
28920;SDS011;16035;53.594;9.952;2022-08-19T03:29:40;34.40;;;16.53;;
28920;SDS011;16035;53.594;9.952;2022-08-19T03:31:41;37.57;;;16.33;;
28920;SDS011;16035;53.594;9.952;2022-08-19T03:33:43;41.83;;;17.45;;
28920;SDS011;16035;53.594;9.952;2022-08-19T03:35:44;35.17;;;15.88;;
28920;SDS011;16035;53.594;9.952;2022-08-19T03:37:45;36.72;;;15.38;;
28920;SDS011;16035;53.594;9.952;2022-08-19T03:39:45;31.00;;;15.30;;
28920;SDS011;16035;53.594;9.952;2022-08-19T03:41:46;28.03;;;14.50;;
28920;SDS011;16035;53.594;9.952;2022-08-19T03:43:49;35.17;;;14.93;;
28920;SDS011;16035;53.594;9.952;2022-08-19T03:45:59;35.17;;;15.52;;
28920;SDS011;16035;53.594;9.952;2022-08-19T03:48:04;35.08;;;14.10;;
28920;SDS011;16035;53.594;9.952;2022-08-19T03:50:04;31.27;;;13.83;;
28920;SDS011;16035;53.594;9.952;2022-08-19T03:52:05;30.15;;;14.10;;
28920;SDS011;16035;53.594;9.952;2022-08-19T03:54:08;29.73;;;13.18;;
28920;SDS011;16035;53.594;9.952;2022-08-19T03:56:10;31.42;;;15.25;;
28920;SDS011;16035;53.594;9.952;2022-08-19T03:58:10;29.77;;;14.53;;
28920;SDS011;16035;53.594;9.952;2022-08-19T04:00:11;32.40;;;14.98;;
28920;SDS011;16035;53.594;9.952;2022-08-19T04:04:13;33.90;;;13.23;;
28920;SDS011;16035;53.594;9.952;2022-08-19T04:06:14;38.67;;;15.33;;
28920;SDS011;16035;53.594;9.952;2022-08-19T04:08:22;31.73;;;14.77;;
28920;SDS011;16035;53.594;9.952;2022-08-19T04:10:23;34.90;;;15.77;;
28920;SDS011;16035;53.594;9.952;2022-08-19T04:12:24;33.45;;;16.52;;
28920;SDS011;16035;53.594;9.952;2022-08-19T04:14:26;32.27;;;15.50;;
28920;SDS011;16035;53.594;9.952;2022-08-19T04:16:29;39.67;;;17.77;;
28920;SDS011;16035;53.594;9.952;2022-08-19T04:18:30;36.67;;;16.45;;
28920;SDS011;16035;53.594;9.952;2022-08-19T04:20:31;37.13;;;16.75;;
28920;SDS011;16035;53.594;9.952;2022-08-19T04:22:31;42.80;;;17.27;;
28920;SDS011;16035;53.594;9.952;2022-08-19T04:24:32;41.40;;;17.73;;
28920;SDS011;16035;53.594;9.952;2022-08-19T04:26:34;39.30;;;18.10;;
28920;SDS011;16035;53.594;9.952;2022-08-19T04:28:36;32.33;;;18.20;;
28920;SDS011;16035;53.594;9.952;2022-08-19T04:30:41;40.58;;;19.55;;
28920;SDS011;16035;53.594;9.952;2022-08-19T04:32:43;36.45;;;18.92;;
28920;SDS011;16035;53.594;9.952;2022-08-19T04:34:44;38.40;;;17.83;;
28920;SDS011;16035;53.594;9.952;2022-08-19T04:36:44;37.37;;;18.80;;
28920;SDS011;16035;53.594;9.952;2022-08-19T04:38:45;42.67;;;18.50;;
28920;SDS011;16035;53.594;9.952;2022-08-19T04:40:46;38.07;;;18.53;;
28920;SDS011;16035;53.594;9.952;2022-08-19T04:43:08;33.95;;;17.95;;
28920;SDS011;16035;53.594;9.952;2022-08-19T04:45:09;39.13;;;17.90;;
28920;SDS011;16035;53.594;9.952;2022-08-19T04:47:11;38.83;;;19.02;;
28920;SDS011;16035;53.594;9.952;2022-08-19T04:49:12;42.53;;;18.80;;
28920;SDS011;16035;53.594;9.952;2022-08-19T04:51:13;36.43;;;19.23;;
28920;SDS011;16035;53.594;9.952;2022-08-19T04:53:13;38.70;;;21.48;;
28920;SDS011;16035;53.594;9.952;2022-08-19T04:55:14;36.60;;;17.97;;
28920;SDS011;16035;53.594;9.952;2022-08-19T04:57:14;35.33;;;16.17;;
28920;SDS011;16035;53.594;9.952;2022-08-19T04:59:15;30.95;;;15.35;;
28920;SDS011;16035;53.594;9.952;2022-08-19T05:01:20;31.58;;;15.85;;
28920;SDS011;16035;53.594;9.952;2022-08-19T05:03:22;36.28;;;17.27;;
28920;SDS011;16035;53.594;9.952;2022-08-19T05:05:23;35.50;;;17.63;;
28920;SDS011;16035;53.594;9.952;2022-08-19T05:07:23;25.57;;;16.07;;
28920;SDS011;16035;53.594;9.952;2022-08-19T05:09:23;24.47;;;14.07;;
28920;SDS011;16035;53.594;9.952;2022-08-19T05:11:25;23.73;;;15.07;;
28920;SDS011;16035;53.594;9.952;2022-08-19T05:13:28;25.17;;;14.20;;
28920;SDS011;16035;53.594;9.952;2022-08-19T05:15:28;23.63;;;15.00;;
28920;SDS011;16035;53.594;9.952;2022-08-19T05:17:29;26.75;;;14.98;;
28920;SDS011;16035;53.594;9.952;2022-08-19T05:19:30;22.00;;;13.07;;
28920;SDS011;16035;53.594;9.952;2022-08-19T05:21:48;22.90;;;14.18;;
28920;SDS011;16035;53.594;9.952;2022-08-19T05:24:07;22.08;;;13.07;;
28920;SDS011;16035;53.594;9.952;2022-08-19T05:26:08;19.30;;;12.38;;
28920;SDS011;16035;53.594;9.952;2022-08-19T05:28:10;19.60;;;11.98;;
28920;SDS011;16035;53.594;9.952;2022-08-19T05:30:11;21.97;;;12.57;;
28920;SDS011;16035;53.594;9.952;2022-08-19T05:32:12;17.13;;;11.52;;
28920;SDS011;16035;53.594;9.952;2022-08-19T05:34:12;18.73;;;11.93;;
28920;SDS011;16035;53.594;9.952;2022-08-19T05:36:13;18.95;;;11.65;;
28920;SDS011;16035;53.594;9.952;2022-08-19T05:38:14;16.67;;;10.53;;
28920;SDS011;16035;53.594;9.952;2022-08-19T05:40:14;18.07;;;11.00;;
28920;SDS011;16035;53.594;9.952;2022-08-19T05:42:14;19.47;;;12.80;;
28920;SDS011;16035;53.594;9.952;2022-08-19T05:44:15;20.13;;;11.68;;
28920;SDS011;16035;53.594;9.952;2022-08-19T05:46:17;21.08;;;11.27;;
28920;SDS011;16035;53.594;9.952;2022-08-19T05:48:19;18.55;;;11.48;;
28920;SDS011;16035;53.594;9.952;2022-08-19T05:50:20;19.80;;;11.43;;
28920;SDS011;16035;53.594;9.952;2022-08-19T05:52:21;20.10;;;11.75;;
28920;SDS011;16035;53.594;9.952;2022-08-19T05:54:21;17.37;;;11.10;;
28920;SDS011;16035;53.594;9.952;2022-08-19T05:56:25;20.98;;;10.52;;
28920;SDS011;16035;53.594;9.952;2022-08-19T05:58:26;19.85;;;11.65;;
28920;SDS011;16035;53.594;9.952;2022-08-19T06:00:26;27.53;;;12.07;;
28920;SDS011;16035;53.594;9.952;2022-08-19T06:02:28;15.05;;;11.15;;
28920;SDS011;16035;53.594;9.952;2022-08-19T06:04:30;16.92;;;10.65;;
28920;SDS011;16035;53.594;9.952;2022-08-19T06:06:30;21.17;;;11.20;;
28920;SDS011;16035;53.594;9.952;2022-08-19T06:08:31;21.23;;;11.07;;
28920;SDS011;16035;53.594;9.952;2022-08-19T06:10:32;18.33;;;10.75;;
28920;SDS011;16035;53.594;9.952;2022-08-19T06:12:34;17.07;;;11.47;;
28920;SDS011;16035;53.594;9.952;2022-08-19T06:14:35;24.30;;;11.55;;
28920;SDS011;16035;53.594;9.952;2022-08-19T06:16:37;21.27;;;12.35;;
28920;SDS011;16035;53.594;9.952;2022-08-19T06:18:39;21.17;;;12.05;;
28920;SDS011;16035;53.594;9.952;2022-08-19T06:20:39;21.97;;;12.37;;
28920;SDS011;16035;53.594;9.952;2022-08-19T06:24:42;17.92;;;10.93;;
28920;SDS011;16035;53.594;9.952;2022-08-19T06:26:43;22.17;;;11.90;;
28920;SDS011;16035;53.594;9.952;2022-08-19T06:28:46;31.38;;;14.65;;
28920;SDS011;16035;53.594;9.952;2022-08-19T06:30:48;22.38;;;13.30;;
28920;SDS011;16035;53.594;9.952;2022-08-19T06:32:48;32.63;;;15.67;;
28920;SDS011;16035;53.594;9.952;2022-08-19T06:34:48;27.00;;;15.87;;
28920;SDS011;16035;53.594;9.952;2022-08-19T06:36:49;34.63;;;16.77;;
28920;SDS011;16035;53.594;9.952;2022-08-19T06:38:51;28.48;;;14.85;;
28920;SDS011;16035;53.594;9.952;2022-08-19T06:40:59;28.70;;;15.00;;
28920;SDS011;16035;53.594;9.952;2022-08-19T06:43:01;27.35;;;14.95;;
28920;SDS011;16035;53.594;9.952;2022-08-19T06:47:04;23.23;;;13.75;;
28920;SDS011;16035;53.594;9.952;2022-08-19T06:49:06;26.77;;;13.82;;
28920;SDS011;16035;53.594;9.952;2022-08-19T06:51:10;27.83;;;15.43;;
28920;SDS011;16035;53.594;9.952;2022-08-19T06:53:10;29.25;;;14.70;;
28920;SDS011;16035;53.594;9.952;2022-08-19T06:55:11;28.40;;;13.13;;
28920;SDS011;16035;53.594;9.952;2022-08-19T06:57:11;22.67;;;12.87;;
28920;SDS011;16035;53.594;9.952;2022-08-19T06:59:19;25.17;;;14.70;;
28920;SDS011;16035;53.594;9.952;2022-08-19T07:01:21;24.05;;;14.38;;
28920;SDS011;16035;53.594;9.952;2022-08-19T07:03:21;25.17;;;13.30;;
28920;SDS011;16035;53.594;9.952;2022-08-19T07:05:21;27.73;;;13.60;;
28920;SDS011;16035;53.594;9.952;2022-08-19T07:07:22;23.63;;;12.97;;
28920;SDS011;16035;53.594;9.952;2022-08-19T07:09:22;21.80;;;13.57;;
28920;SDS011;16035;53.594;9.952;2022-08-19T07:11:23;18.57;;;11.57;;
28920;SDS011;16035;53.594;9.952;2022-08-19T07:13:23;16.70;;;11.32;;
28920;SDS011;16035;53.594;9.952;2022-08-19T07:15:24;23.87;;;10.97;;
28920;SDS011;16035;53.594;9.952;2022-08-19T07:17:24;19.20;;;12.03;;
28920;SDS011;16035;53.594;9.952;2022-08-19T07:19:26;14.63;;;9.60;;
28920;SDS011;16035;53.594;9.952;2022-08-19T07:21:27;16.73;;;11.27;;
28920;SDS011;16035;53.594;9.952;2022-08-19T07:23:28;15.75;;;9.48;;
28920;SDS011;16035;53.594;9.952;2022-08-19T07:25:28;16.00;;;9.17;;
28920;SDS011;16035;53.594;9.952;2022-08-19T07:27:29;12.95;;;9.00;;
28920;SDS011;16035;53.594;9.952;2022-08-19T07:29:30;16.97;;;9.03;;
28920;SDS011;16035;53.594;9.952;2022-08-19T07:31:33;9.48;;;7.45;;
28920;SDS011;16035;53.594;9.952;2022-08-19T07:33:36;12.77;;;7.75;;
28920;SDS011;16035;53.594;9.952;2022-08-19T07:35:37;11.52;;;7.95;;
28920;SDS011;16035;53.594;9.952;2022-08-19T07:37:38;13.07;;;7.87;;
28920;SDS011;16035;53.594;9.952;2022-08-19T07:39:43;12.38;;;7.45;;
28920;SDS011;16035;53.594;9.952;2022-08-19T07:41:44;15.17;;;8.53;;
28920;SDS011;16035;53.594;9.952;2022-08-19T07:43:46;10.52;;;7.88;;
28920;SDS011;16035;53.594;9.952;2022-08-19T07:45:47;12.02;;;7.32;;
28920;SDS011;16035;53.594;9.952;2022-08-19T07:47:48;13.67;;;7.73;;
28920;SDS011;16035;53.594;9.952;2022-08-19T07:49:49;9.50;;;7.20;;
28920;SDS011;16035;53.594;9.952;2022-08-19T07:51:52;14.33;;;8.47;;
28920;SDS011;16035;53.594;9.952;2022-08-19T07:53:54;12.27;;;7.38;;
28920;SDS011;16035;53.594;9.952;2022-08-19T07:55:55;10.07;;;6.95;;
28920;SDS011;16035;53.594;9.952;2022-08-19T07:58:01;10.27;;;6.65;;
28920;SDS011;16035;53.594;9.952;2022-08-19T08:00:03;9.20;;;7.00;;
28920;SDS011;16035;53.594;9.952;2022-08-19T08:02:05;10.50;;;7.05;;
28920;SDS011;16035;53.594;9.952;2022-08-19T08:04:06;13.80;;;7.90;;
28920;SDS011;16035;53.594;9.952;2022-08-19T08:06:25;8.90;;;6.53;;
28920;SDS011;16035;53.594;9.952;2022-08-19T08:08:44;11.27;;;8.02;;
28920;SDS011;16035;53.594;9.952;2022-08-19T08:10:45;11.13;;;7.27;;
28920;SDS011;16035;53.594;9.952;2022-08-19T08:12:45;14.40;;;7.57;;
28920;SDS011;16035;53.594;9.952;2022-08-19T08:14:47;12.80;;;7.57;;
28920;SDS011;16035;53.594;9.952;2022-08-19T08:16:52;9.40;;;6.20;;
28920;SDS011;16035;53.594;9.952;2022-08-19T08:18:53;10.13;;;6.67;;
28920;SDS011;16035;53.594;9.952;2022-08-19T08:20:53;12.57;;;7.20;;
28920;SDS011;16035;53.594;9.952;2022-08-19T08:22:55;10.30;;;7.03;;
28920;SDS011;16035;53.594;9.952;2022-08-19T08:25:17;10.55;;;7.68;;
28920;SDS011;16035;53.594;9.952;2022-08-19T08:27:20;12.32;;;7.93;;
28920;SDS011;16035;53.594;9.952;2022-08-19T08:29:20;12.17;;;8.00;;
28920;SDS011;16035;53.594;9.952;2022-08-19T08:31:20;13.03;;;8.30;;
28920;SDS011;16035;53.594;9.952;2022-08-19T08:33:23;14.60;;;8.87;;
28920;SDS011;16035;53.594;9.952;2022-08-19T08:35:25;13.48;;;7.93;;
28920;SDS011;16035;53.594;9.952;2022-08-19T08:37:26;16.10;;;9.90;;
28920;SDS011;16035;53.594;9.952;2022-08-19T08:39:26;19.47;;;11.10;;
28920;SDS011;16035;53.594;9.952;2022-08-19T08:43:34;20.27;;;10.95;;
28920;SDS011;16035;53.594;9.952;2022-08-19T08:45:38;16.55;;;10.52;;
28920;SDS011;16035;53.594;9.952;2022-08-19T08:47:47;15.98;;;10.88;;
28920;SDS011;16035;53.594;9.952;2022-08-19T08:52:13;21.15;;;11.00;;
28920;SDS011;16035;53.594;9.952;2022-08-19T08:54:20;21.88;;;11.82;;
28920;SDS011;16035;53.594;9.952;2022-08-19T08:56:26;18.52;;;11.07;;
28920;SDS011;16035;53.594;9.952;2022-08-19T08:58:39;24.57;;;13.47;;
28920;SDS011;16035;53.594;9.952;2022-08-19T09:00:45;23.33;;;12.13;;
28920;SDS011;16035;53.594;9.952;2022-08-19T09:02:47;20.08;;;11.88;;
28920;SDS011;16035;53.594;9.952;2022-08-19T09:04:48;21.60;;;11.47;;
28920;SDS011;16035;53.594;9.952;2022-08-19T09:09:04;21.20;;;12.90;;
28920;SDS011;16035;53.594;9.952;2022-08-19T09:11:50;19.02;;;10.30;;
28920;SDS011;16035;53.594;9.952;2022-08-19T09:16:10;17.50;;;10.43;;
28920;SDS011;16035;53.594;9.952;2022-08-19T09:18:13;22.67;;;11.73;;
28920;SDS011;16035;53.594;9.952;2022-08-19T09:20:18;16.95;;;10.07;;
28920;SDS011;16035;53.594;9.952;2022-08-19T09:22:21;20.33;;;10.00;;
28920;SDS011;16035;53.594;9.952;2022-08-19T09:24:22;16.83;;;9.63;;
28920;SDS011;16035;53.594;9.952;2022-08-19T09:26:23;14.35;;;10.13;;
28920;SDS011;16035;53.594;9.952;2022-08-19T09:30:26;15.50;;;9.13;;
28920;SDS011;16035;53.594;9.952;2022-08-19T09:32:28;14.48;;;9.00;;
28920;SDS011;16035;53.594;9.952;2022-08-19T09:34:28;13.83;;;8.47;;
28920;SDS011;16035;53.594;9.952;2022-08-19T09:36:29;12.37;;;7.93;;
28920;SDS011;16035;53.594;9.952;2022-08-19T09:38:33;16.65;;;9.93;;
28920;SDS011;16035;53.594;9.952;2022-08-19T09:40:34;14.88;;;9.30;;
28920;SDS011;16035;53.594;9.952;2022-08-19T09:42:35;16.70;;;9.40;;
28920;SDS011;16035;53.594;9.952;2022-08-19T09:44:35;14.13;;;8.70;;
28920;SDS011;16035;53.594;9.952;2022-08-19T09:46:35;15.60;;;10.03;;
28920;SDS011;16035;53.594;9.952;2022-08-19T09:48:36;16.60;;;9.00;;
28920;SDS011;16035;53.594;9.952;2022-08-19T09:50:36;17.25;;;8.68;;
28920;SDS011;16035;53.594;9.952;2022-08-19T09:52:38;13.25;;;9.32;;
28920;SDS011;16035;53.594;9.952;2022-08-19T09:54:39;14.82;;;9.02;;
28920;SDS011;16035;53.594;9.952;2022-08-19T09:56:40;20.73;;;9.87;;
28920;SDS011;16035;53.594;9.952;2022-08-19T09:58:40;11.80;;;8.20;;
28920;SDS011;16035;53.594;9.952;2022-08-19T10:00:40;15.03;;;9.73;;
28920;SDS011;16035;53.594;9.952;2022-08-19T10:02:40;14.33;;;10.33;;
28920;SDS011;16035;53.594;9.952;2022-08-19T10:04:41;15.37;;;8.90;;
28920;SDS011;16035;53.594;9.952;2022-08-19T10:07:04;19.63;;;9.75;;
28920;SDS011;16035;53.594;9.952;2022-08-19T10:09:06;14.20;;;10.27;;
28920;SDS011;16035;53.594;9.952;2022-08-19T10:11:07;17.23;;;11.60;;
28920;SDS011;16035;53.594;9.952;2022-08-19T10:13:09;23.38;;;11.65;;
28920;SDS011;16035;53.594;9.952;2022-08-19T10:15:10;16.25;;;9.75;;
28920;SDS011;16035;53.594;9.952;2022-08-19T10:17:11;17.63;;;12.38;;
28920;SDS011;16035;53.594;9.952;2022-08-19T10:19:12;17.50;;;10.87;;
28920;SDS011;16035;53.594;9.952;2022-08-19T10:21:17;20.50;;;12.47;;
28920;SDS011;16035;53.594;9.952;2022-08-19T10:23:20;21.05;;;12.38;;
28920;SDS011;16035;53.594;9.952;2022-08-19T10:25:21;18.15;;;12.23;;
28920;SDS011;16035;53.594;9.952;2022-08-19T10:27:21;20.53;;;12.10;;
28920;SDS011;16035;53.594;9.952;2022-08-19T10:29:22;16.37;;;11.17;;
28920;SDS011;16035;53.594;9.952;2022-08-19T10:31:23;25.73;;;12.37;;
28920;SDS011;16035;53.594;9.952;2022-08-19T10:33:25;24.42;;;13.82;;
28920;SDS011;16035;53.594;9.952;2022-08-19T10:35:27;17.88;;;12.45;;
28920;SDS011;16035;53.594;9.952;2022-08-19T10:37:29;19.70;;;12.93;;
28920;SDS011;16035;53.594;9.952;2022-08-19T10:41:36;23.58;;;13.77;;
28920;SDS011;16035;53.594;9.952;2022-08-19T10:43:38;22.98;;;14.20;;
28920;SDS011;16035;53.594;9.952;2022-08-19T10:45:39;22.70;;;14.27;;
28920;SDS011;16035;53.594;9.952;2022-08-19T10:47:40;20.67;;;13.23;;
28920;SDS011;16035;53.594;9.952;2022-08-19T10:49:40;23.70;;;14.43;;
28920;SDS011;16035;53.594;9.952;2022-08-19T10:51:59;27.20;;;14.23;;
28920;SDS011;16035;53.594;9.952;2022-08-19T10:54:18;19.73;;;12.75;;
28920;SDS011;16035;53.594;9.952;2022-08-19T10:56:19;30.63;;;13.97;;
28920;SDS011;16035;53.594;9.952;2022-08-19T10:58:38;20.52;;;13.02;;
28920;SDS011;16035;53.594;9.952;2022-08-19T11:00:38;21.43;;;13.30;;
28920;SDS011;16035;53.594;9.952;2022-08-19T11:02:40;24.42;;;14.25;;
28920;SDS011;16035;53.594;9.952;2022-08-19T11:04:41;25.10;;;14.27;;
28920;SDS011;16035;53.594;9.952;2022-08-19T11:06:42;22.03;;;13.07;;
28920;SDS011;16035;53.594;9.952;2022-08-19T11:08:43;22.67;;;13.60;;
28920;SDS011;16035;53.594;9.952;2022-08-19T11:10:44;21.95;;;13.10;;
28920;SDS011;16035;53.594;9.952;2022-08-19T11:12:45;22.50;;;12.57;;
28920;SDS011;16035;53.594;9.952;2022-08-19T11:16:48;18.83;;;12.45;;
28920;SDS011;16035;53.594;9.952;2022-08-19T11:18:50;18.67;;;12.23;;
28920;SDS011;16035;53.594;9.952;2022-08-19T11:20:52;18.40;;;12.30;;
28920;SDS011;16035;53.594;9.952;2022-08-19T11:22:52;19.13;;;12.03;;
28920;SDS011;16035;53.594;9.952;2022-08-19T11:24:53;21.73;;;13.23;;
28920;SDS011;16035;53.594;9.952;2022-08-19T11:26:58;19.80;;;11.35;;
28920;SDS011;16035;53.594;9.952;2022-08-19T11:29:04;18.02;;;11.38;;
28920;SDS011;16035;53.594;9.952;2022-08-19T11:31:14;22.50;;;13.13;;
28920;SDS011;16035;53.594;9.952;2022-08-19T11:33:17;15.40;;;10.20;;
28920;SDS011;16035;53.594;9.952;2022-08-19T11:35:17;16.60;;;10.33;;
28920;SDS011;16035;53.594;9.952;2022-08-19T11:37:19;18.73;;;11.50;;
28920;SDS011;16035;53.594;9.952;2022-08-19T11:39:20;19.80;;;12.10;;
28920;SDS011;16035;53.594;9.952;2022-08-19T11:41:22;20.02;;;11.68;;
28920;SDS011;16035;53.594;9.952;2022-08-19T11:43:24;17.75;;;11.65;;
28920;SDS011;16035;53.594;9.952;2022-08-19T11:45:25;14.93;;;10.52;;
28920;SDS011;16035;53.594;9.952;2022-08-19T11:47:27;18.45;;;11.38;;
28920;SDS011;16035;53.594;9.952;2022-08-19T11:49:30;13.38;;;9.80;;
28920;SDS011;16035;53.594;9.952;2022-08-19T11:51:30;17.27;;;10.40;;
28920;SDS011;16035;53.594;9.952;2022-08-19T11:53:31;20.88;;;11.55;;
28920;SDS011;16035;53.594;9.952;2022-08-19T11:55:32;19.08;;;10.25;;
28920;SDS011;16035;53.594;9.952;2022-08-19T11:57:36;18.02;;;11.35;;
28920;SDS011;16035;53.594;9.952;2022-08-19T11:59:36;18.77;;;11.60;;
28920;SDS011;16035;53.594;9.952;2022-08-19T12:01:37;14.13;;;10.57;;
28920;SDS011;16035;53.594;9.952;2022-08-19T12:03:37;16.50;;;11.17;;
28920;SDS011;16035;53.594;9.952;2022-08-19T12:05:39;14.90;;;11.25;;
28920;SDS011;16035;53.594;9.952;2022-08-19T12:07:40;17.35;;;11.35;;
28920;SDS011;16035;53.594;9.952;2022-08-19T12:09:42;17.33;;;11.32;;
28920;SDS011;16035;53.594;9.952;2022-08-19T12:11:43;14.93;;;11.07;;
28920;SDS011;16035;53.594;9.952;2022-08-19T12:13:44;16.75;;;9.88;;
28920;SDS011;16035;53.594;9.952;2022-08-19T12:15:46;13.13;;;9.38;;
28920;SDS011;16035;53.594;9.952;2022-08-19T12:17:47;11.80;;;8.98;;
28920;SDS011;16035;53.594;9.952;2022-08-19T12:19:47;16.43;;;9.27;;